Main page
METAR-TAF:

METAR-TAF

Airports :

Dublin, Ireland

Casement Aerodrome

latitude: 53-18-06N, longitude: 6-27-04W, elevation: 97 m

Current weather observation

The report was made 58 minutes ago, at 13:00 UTC
Wind 19 kt from the West
Temperature 19°C
Humidity 64%
Pressure 1011 hPa
Visibility 10 km or more
Scattered clouds at a height of 2800 ft

METAR: EIME 241300Z 28019KT 9999 SCT028 19/12 Q1011

Time: 14:58 (13:58 UTC)

Forecast

The report was made 2 hours and 58 minutes ago, at 11:00 UTC
Forecast valid from 24 at 12 UTC to 24 at 21 UTC
Wind 18 kt from the West/Southwest
Visibility 10 km or more
Few clouds at a height of 1500 ft
Broken clouds at a height of 3500 ft
Temporary
from 24 at 12 UTC to 24 at 17 UTC
Wind 18 kt from the West with gusts up to 28 kt
Becoming
from 24 at 17 UTC to 24 at 19 UTC
Wind 13 kt from the West

TAF: EIME 241100Z 2412/2421 25018KT 9999 FEW015 BKN035 TEMPO 2412/2417 27018G28KT BECMG 2417/2419 26013KT

Weather observations and forecasts of more than 4000 airports (METAR and TAF reports).

The available stations are represented by yellow and red dots on the map.

Hover mouse over dot to see the name of the station.

Then click to see weather observations and forecasts.

To change the map : click on the green buttons with a black cross to zoom in, on the green button with a dash to zoom out, or on the green arrows for adjacent maps.


METAR-TAF: